sensor_id;sensor_type;location;lat;lon;timestamp;P1;durP1;ratioP1;P2;durP2;ratioP2
58238;SDS011;44037;55.638;37.356;2023-11-19T00:00:07;24.65;;;14.50;;
58238;SDS011;44037;55.638;37.356;2023-11-19T00:02:38;22.25;;;14.32;;
58238;SDS011;44037;55.638;37.356;2023-11-19T00:05:07;26.20;;;15.40;;
58238;SDS011;44037;55.638;37.356;2023-11-19T00:07:37;27.33;;;15.43;;
58238;SDS011;44037;55.638;37.356;2023-11-19T00:10:07;25.75;;;15.45;;
58238;SDS011;44037;55.638;37.356;2023-11-19T00:12:36;26.17;;;15.60;;
58238;SDS011;44037;55.638;37.356;2023-11-19T00:15:06;22.52;;;15.18;;
58238;SDS011;44037;55.638;37.356;2023-11-19T00:17:37;22.33;;;14.88;;
58238;SDS011;44037;55.638;37.356;2023-11-19T00:20:08;24.98;;;14.43;;
58238;SDS011;44037;55.638;37.356;2023-11-19T00:22:36;28.70;;;15.52;;
58238;SDS011;44037;55.638;37.356;2023-11-19T00:25:05;28.27;;;15.90;;
58238;SDS011;44037;55.638;37.356;2023-11-19T00:27:33;22.10;;;13.43;;
58238;SDS011;44037;55.638;37.356;2023-11-19T00:30:05;28.90;;;15.23;;
58238;SDS011;44037;55.638;37.356;2023-11-19T00:32:35;26.42;;;14.88;;
58238;SDS011;44037;55.638;37.356;2023-11-19T00:35:04;24.30;;;14.73;;
58238;SDS011;44037;55.638;37.356;2023-11-19T00:37:34;28.17;;;15.43;;
58238;SDS011;44037;55.638;37.356;2023-11-19T00:40:03;29.38;;;15.57;;
58238;SDS011;44037;55.638;37.356;2023-11-19T00:42:32;27.80;;;15.07;;
58238;SDS011;44037;55.638;37.356;2023-11-19T00:44:59;25.17;;;15.38;;
58238;SDS011;44037;55.638;37.356;2023-11-19T00:47:31;22.20;;;13.75;;
58238;SDS011;44037;55.638;37.356;2023-11-19T00:49:58;27.02;;;15.90;;
58238;SDS011;44037;55.638;37.356;2023-11-19T00:52:26;25.08;;;16.05;;
58238;SDS011;44037;55.638;37.356;2023-11-19T00:54:55;24.48;;;14.10;;
58238;SDS011;44037;55.638;37.356;2023-11-19T00:57:23;25.48;;;15.82;;
58238;SDS011;44037;55.638;37.356;2023-11-19T00:59:52;27.95;;;15.55;;
58238;SDS011;44037;55.638;37.356;2023-11-19T01:02:20;26.27;;;14.48;;
58238;SDS011;44037;55.638;37.356;2023-11-19T01:04:48;27.95;;;14.98;;
58238;SDS011;44037;55.638;37.356;2023-11-19T01:07:16;27.02;;;15.95;;
58238;SDS011;44037;55.638;37.356;2023-11-19T01:09:44;32.28;;;16.20;;
58238;SDS011;44037;55.638;37.356;2023-11-19T01:12:13;30.67;;;15.90;;
58238;SDS011;44037;55.638;37.356;2023-11-19T01:14:41;30.52;;;16.13;;
58238;SDS011;44037;55.638;37.356;2023-11-19T01:17:08;24.45;;;12.93;;
58238;SDS011;44037;55.638;37.356;2023-11-19T01:19:36;25.38;;;14.80;;
58238;SDS011;44037;55.638;37.356;2023-11-19T01:22:04;27.35;;;13.98;;
58238;SDS011;44037;55.638;37.356;2023-11-19T01:24:32;25.95;;;13.57;;
58238;SDS011;44037;55.638;37.356;2023-11-19T01:26:59;24.70;;;14.38;;
58238;SDS011;44037;55.638;37.356;2023-11-19T01:29:29;25.75;;;14.85;;
58238;SDS011;44037;55.638;37.356;2023-11-19T01:31:56;28.27;;;14.75;;
58238;SDS011;44037;55.638;37.356;2023-11-19T01:34:24;29.73;;;14.80;;
58238;SDS011;44037;55.638;37.356;2023-11-19T01:36:52;23.08;;;13.40;;
58238;SDS011;44037;55.638;37.356;2023-11-19T01:39:20;26.00;;;14.30;;
58238;SDS011;44037;55.638;37.356;2023-11-19T01:41:48;28.65;;;14.55;;
58238;SDS011;44037;55.638;37.356;2023-11-19T01:44:15;23.15;;;13.70;;
58238;SDS011;44037;55.638;37.356;2023-11-19T01:46:45;24.35;;;14.25;;
58238;SDS011;44037;55.638;37.356;2023-11-19T01:49:15;23.80;;;13.70;;
58238;SDS011;44037;55.638;37.356;2023-11-19T01:51:44;24.77;;;13.27;;
58238;SDS011;44037;55.638;37.356;2023-11-19T01:54:12;22.33;;;13.23;;
58238;SDS011;44037;55.638;37.356;2023-11-19T01:56:41;24.00;;;14.18;;
58238;SDS011;44037;55.638;37.356;2023-11-19T01:59:10;21.65;;;13.07;;
58238;SDS011;44037;55.638;37.356;2023-11-19T02:01:40;21.38;;;13.82;;
58238;SDS011;44037;55.638;37.356;2023-11-19T02:04:10;23.35;;;13.73;;
58238;SDS011;44037;55.638;37.356;2023-11-19T02:06:40;22.65;;;13.90;;
58238;SDS011;44037;55.638;37.356;2023-11-19T02:09:09;23.63;;;13.82;;
58238;SDS011;44037;55.638;37.356;2023-11-19T02:11:36;30.63;;;14.77;;
58238;SDS011;44037;55.638;37.356;2023-11-19T02:14:06;23.70;;;12.90;;
58238;SDS011;44037;55.638;37.356;2023-11-19T02:16:35;21.98;;;13.90;;
58238;SDS011;44037;55.638;37.356;2023-11-19T02:19:03;26.17;;;13.85;;
58238;SDS011;44037;55.638;37.356;2023-11-19T02:21:53;26.15;;;14.40;;
58238;SDS011;44037;55.638;37.356;2023-11-19T02:24:21;24.58;;;14.00;;
58238;SDS011;44037;55.638;37.356;2023-11-19T02:26:54;22.10;;;13.57;;
58238;SDS011;44037;55.638;37.356;2023-11-19T02:29:29;23.50;;;13.30;;
58238;SDS011;44037;55.638;37.356;2023-11-19T02:31:57;22.50;;;13.23;;
58238;SDS011;44037;55.638;37.356;2023-11-19T02:34:25;27.85;;;13.88;;
58238;SDS011;44037;55.638;37.356;2023-11-19T02:36:53;26.02;;;14.45;;
58238;SDS011;44037;55.638;37.356;2023-11-19T02:39:21;23.42;;;13.60;;
58238;SDS011;44037;55.638;37.356;2023-11-19T02:41:49;25.00;;;14.05;;
58238;SDS011;44037;55.638;37.356;2023-11-19T02:44:19;29.98;;;14.77;;
58238;SDS011;44037;55.638;37.356;2023-11-19T02:46:48;29.05;;;14.93;;
58238;SDS011;44037;55.638;37.356;2023-11-19T02:49:16;21.80;;;13.45;;
58238;SDS011;44037;55.638;37.356;2023-11-19T02:51:44;23.92;;;13.63;;
58238;SDS011;44037;55.638;37.356;2023-11-19T02:54:11;27.83;;;15.10;;
58238;SDS011;44037;55.638;37.356;2023-11-19T02:56:42;28.40;;;15.05;;
58238;SDS011;44037;55.638;37.356;2023-11-19T02:59:10;30.33;;;15.38;;
58238;SDS011;44037;55.638;37.356;2023-11-19T03:01:54;33.08;;;15.60;;
58238;SDS011;44037;55.638;37.356;2023-11-19T03:04:22;26.13;;;15.65;;
58238;SDS011;44037;55.638;37.356;2023-11-19T03:06:50;24.92;;;13.95;;
58238;SDS011;44037;55.638;37.356;2023-11-19T03:09:19;28.27;;;15.50;;
58238;SDS011;44037;55.638;37.356;2023-11-19T03:11:46;30.20;;;15.35;;
58238;SDS011;44037;55.638;37.356;2023-11-19T03:14:15;23.58;;;14.80;;
58238;SDS011;44037;55.638;37.356;2023-11-19T03:16:44;25.15;;;14.93;;
58238;SDS011;44037;55.638;37.356;2023-11-19T03:19:14;25.75;;;16.17;;
58238;SDS011;44037;55.638;37.356;2023-11-19T03:21:42;26.20;;;16.23;;
58238;SDS011;44037;55.638;37.356;2023-11-19T03:24:10;31.55;;;17.20;;
58238;SDS011;44037;55.638;37.356;2023-11-19T03:26:41;27.13;;;17.75;;
58238;SDS011;44037;55.638;37.356;2023-11-19T03:29:09;34.10;;;16.20;;
58238;SDS011;44037;55.638;37.356;2023-11-19T03:31:37;29.40;;;17.13;;
58238;SDS011;44037;55.638;37.356;2023-11-19T03:34:09;25.52;;;16.95;;
58238;SDS011;44037;55.638;37.356;2023-11-19T03:36:38;29.67;;;17.50;;
58238;SDS011;44037;55.638;37.356;2023-11-19T03:39:06;31.75;;;17.10;;
58238;SDS011;44037;55.638;37.356;2023-11-19T03:41:34;30.20;;;17.38;;
58238;SDS011;44037;55.638;37.356;2023-11-19T03:44:02;32.33;;;17.75;;
58238;SDS011;44037;55.638;37.356;2023-11-19T03:46:30;27.58;;;17.70;;
58238;SDS011;44037;55.638;37.356;2023-11-19T03:48:58;30.73;;;17.33;;
58238;SDS011;44037;55.638;37.356;2023-11-19T03:51:25;31.02;;;17.83;;
58238;SDS011;44037;55.638;37.356;2023-11-19T03:53:55;28.10;;;16.65;;
58238;SDS011;44037;55.638;37.356;2023-11-19T03:56:22;32.55;;;17.88;;
58238;SDS011;44037;55.638;37.356;2023-11-19T03:58:50;31.67;;;18.80;;
58238;SDS011;44037;55.638;37.356;2023-11-19T04:01:19;39.22;;;19.30;;
58238;SDS011;44037;55.638;37.356;2023-11-19T04:03:46;29.42;;;16.02;;
58238;SDS011;44037;55.638;37.356;2023-11-19T04:06:14;32.65;;;17.40;;
58238;SDS011;44037;55.638;37.356;2023-11-19T04:08:42;27.90;;;16.73;;
58238;SDS011;44037;55.638;37.356;2023-11-19T04:11:11;31.65;;;17.85;;
58238;SDS011;44037;55.638;37.356;2023-11-19T04:13:39;32.40;;;17.98;;
58238;SDS011;44037;55.638;37.356;2023-11-19T04:16:08;30.58;;;16.58;;
58238;SDS011;44037;55.638;37.356;2023-11-19T04:18:35;29.05;;;17.20;;
58238;SDS011;44037;55.638;37.356;2023-11-19T04:21:05;28.10;;;15.98;;
58238;SDS011;44037;55.638;37.356;2023-11-19T04:23:33;31.20;;;17.45;;
58238;SDS011;44037;55.638;37.356;2023-11-19T04:26:01;28.58;;;17.13;;
58238;SDS011;44037;55.638;37.356;2023-11-19T04:28:31;28.05;;;15.95;;
58238;SDS011;44037;55.638;37.356;2023-11-19T04:30:59;28.85;;;16.75;;
58238;SDS011;44037;55.638;37.356;2023-11-19T04:33:29;33.25;;;18.27;;
58238;SDS011;44037;55.638;37.356;2023-11-19T04:35:57;31.75;;;17.50;;
58238;SDS011;44037;55.638;37.356;2023-11-19T04:38:24;25.17;;;16.15;;
58238;SDS011;44037;55.638;37.356;2023-11-19T04:40:53;29.60;;;17.08;;
58238;SDS011;44037;55.638;37.356;2023-11-19T04:43:23;32.03;;;18.10;;
58238;SDS011;44037;55.638;37.356;2023-11-19T04:45:52;25.80;;;16.17;;
58238;SDS011;44037;55.638;37.356;2023-11-19T04:48:20;32.17;;;18.92;;
58238;SDS011;44037;55.638;37.356;2023-11-19T04:50:47;31.67;;;17.20;;
58238;SDS011;44037;55.638;37.356;2023-11-19T04:53:17;27.13;;;17.27;;
58238;SDS011;44037;55.638;37.356;2023-11-19T04:55:45;28.15;;;16.98;;
58238;SDS011;44037;55.638;37.356;2023-11-19T04:58:13;27.77;;;15.32;;
58238;SDS011;44037;55.638;37.356;2023-11-19T05:00:41;28.80;;;17.38;;
58238;SDS011;44037;55.638;37.356;2023-11-19T05:03:10;27.73;;;16.17;;
58238;SDS011;44037;55.638;37.356;2023-11-19T05:05:38;29.33;;;18.10;;
58238;SDS011;44037;55.638;37.356;2023-11-19T05:08:06;34.67;;;17.60;;
58238;SDS011;44037;55.638;37.356;2023-11-19T05:10:33;31.17;;;18.75;;
58238;SDS011;44037;55.638;37.356;2023-11-19T05:13:02;36.22;;;19.05;;
58238;SDS011;44037;55.638;37.356;2023-11-19T05:15:30;33.72;;;18.30;;
58238;SDS011;44037;55.638;37.356;2023-11-19T05:17:59;32.03;;;17.67;;
58238;SDS011;44037;55.638;37.356;2023-11-19T05:20:28;26.83;;;16.55;;
58238;SDS011;44037;55.638;37.356;2023-11-19T05:22:56;34.45;;;18.70;;
58238;SDS011;44037;55.638;37.356;2023-11-19T05:25:26;31.65;;;18.83;;
58238;SDS011;44037;55.638;37.356;2023-11-19T05:27:54;29.08;;;17.63;;
58238;SDS011;44037;55.638;37.356;2023-11-19T05:30:22;30.27;;;18.83;;
58238;SDS011;44037;55.638;37.356;2023-11-19T05:32:50;30.52;;;18.38;;
58238;SDS011;44037;55.638;37.356;2023-11-19T05:35:17;28.10;;;17.15;;
58238;SDS011;44037;55.638;37.356;2023-11-19T05:37:47;39.20;;;18.73;;
58238;SDS011;44037;55.638;37.356;2023-11-19T05:40:15;30.50;;;17.75;;
58238;SDS011;44037;55.638;37.356;2023-11-19T05:42:45;32.75;;;19.15;;
58238;SDS011;44037;55.638;37.356;2023-11-19T05:45:13;37.38;;;19.52;;
58238;SDS011;44037;55.638;37.356;2023-11-19T05:47:41;30.50;;;17.83;;
58238;SDS011;44037;55.638;37.356;2023-11-19T05:50:10;30.58;;;17.42;;
58238;SDS011;44037;55.638;37.356;2023-11-19T05:52:37;30.67;;;18.17;;
58238;SDS011;44037;55.638;37.356;2023-11-19T05:55:07;33.10;;;18.67;;
58238;SDS011;44037;55.638;37.356;2023-11-19T05:57:36;35.13;;;22.55;;
58238;SDS011;44037;55.638;37.356;2023-11-19T06:00:04;32.40;;;19.92;;
58238;SDS011;44037;55.638;37.356;2023-11-19T06:02:33;31.33;;;20.17;;
58238;SDS011;44037;55.638;37.356;2023-11-19T06:05:03;32.85;;;20.67;;
58238;SDS011;44037;55.638;37.356;2023-11-19T06:07:33;32.40;;;20.27;;
58238;SDS011;44037;55.638;37.356;2023-11-19T06:10:01;39.75;;;22.58;;
58238;SDS011;44037;55.638;37.356;2023-11-19T06:12:32;33.53;;;20.50;;
58238;SDS011;44037;55.638;37.356;2023-11-19T06:15:04;35.42;;;22.30;;
58238;SDS011;44037;55.638;37.356;2023-11-19T06:17:34;33.40;;;21.27;;
58238;SDS011;44037;55.638;37.356;2023-11-19T06:20:03;41.65;;;21.70;;
58238;SDS011;44037;55.638;37.356;2023-11-19T06:22:31;34.92;;;21.27;;
58238;SDS011;44037;55.638;37.356;2023-11-19T06:24:59;33.03;;;22.17;;
58238;SDS011;44037;55.638;37.356;2023-11-19T06:27:26;36.22;;;20.75;;
58238;SDS011;44037;55.638;37.356;2023-11-19T06:29:56;43.13;;;22.50;;
58238;SDS011;44037;55.638;37.356;2023-11-19T06:32:23;34.33;;;21.77;;
58238;SDS011;44037;55.638;37.356;2023-11-19T06:34:51;35.15;;;21.08;;
58238;SDS011;44037;55.638;37.356;2023-11-19T06:37:19;29.65;;;21.88;;
58238;SDS011;44037;55.638;37.356;2023-11-19T06:39:48;32.95;;;19.70;;
58238;SDS011;44037;55.638;37.356;2023-11-19T06:42:15;32.13;;;19.55;;
58238;SDS011;44037;55.638;37.356;2023-11-19T06:44:44;36.28;;;22.17;;
58238;SDS011;44037;55.638;37.356;2023-11-19T06:47:13;38.65;;;21.77;;
58238;SDS011;44037;55.638;37.356;2023-11-19T06:49:43;38.10;;;21.40;;
58238;SDS011;44037;55.638;37.356;2023-11-19T06:52:11;29.58;;;21.15;;
58238;SDS011;44037;55.638;37.356;2023-11-19T06:54:39;35.95;;;22.30;;
58238;SDS011;44037;55.638;37.356;2023-11-19T06:57:07;33.42;;;21.42;;
58238;SDS011;44037;55.638;37.356;2023-11-19T06:59:35;34.83;;;22.88;;
58238;SDS011;44037;55.638;37.356;2023-11-19T07:02:03;31.77;;;22.45;;
58238;SDS011;44037;55.638;37.356;2023-11-19T07:04:33;34.25;;;22.35;;
58238;SDS011;44037;55.638;37.356;2023-11-19T07:07:00;32.92;;;21.98;;
58238;SDS011;44037;55.638;37.356;2023-11-19T07:09:28;41.22;;;21.98;;
58238;SDS011;44037;55.638;37.356;2023-11-19T07:11:56;37.20;;;22.45;;
58238;SDS011;44037;55.638;37.356;2023-11-19T07:14:25;35.60;;;24.42;;
58238;SDS011;44037;55.638;37.356;2023-11-19T07:16:54;31.63;;;20.98;;
58238;SDS011;44037;55.638;37.356;2023-11-19T07:19:22;32.40;;;21.00;;
58238;SDS011;44037;55.638;37.356;2023-11-19T07:21:51;33.00;;;21.60;;
58238;SDS011;44037;55.638;37.356;2023-11-19T07:24:20;34.15;;;20.58;;
58238;SDS011;44037;55.638;37.356;2023-11-19T07:26:48;31.23;;;19.80;;
58238;SDS011;44037;55.638;37.356;2023-11-19T07:29:15;38.83;;;22.08;;
58238;SDS011;44037;55.638;37.356;2023-11-19T07:31:43;34.42;;;21.63;;
58238;SDS011;44037;55.638;37.356;2023-11-19T07:34:11;36.03;;;23.55;;
58238;SDS011;44037;55.638;37.356;2023-11-19T07:36:40;33.83;;;20.90;;
58238;SDS011;44037;55.638;37.356;2023-11-19T07:39:09;30.95;;;20.13;;
58238;SDS011;44037;55.638;37.356;2023-11-19T07:41:37;30.20;;;19.42;;
58238;SDS011;44037;55.638;37.356;2023-11-19T07:44:05;28.73;;;18.40;;
58238;SDS011;44037;55.638;37.356;2023-11-19T07:46:33;38.55;;;18.00;;
58238;SDS011;44037;55.638;37.356;2023-11-19T07:49:01;28.35;;;17.02;;
58238;SDS011;44037;55.638;37.356;2023-11-19T07:51:28;25.75;;;16.10;;
58238;SDS011;44037;55.638;37.356;2023-11-19T07:53:56;22.80;;;14.43;;
58238;SDS011;44037;55.638;37.356;2023-11-19T07:56:25;23.33;;;15.10;;
58238;SDS011;44037;55.638;37.356;2023-11-19T07:58:53;27.30;;;14.80;;
58238;SDS011;44037;55.638;37.356;2023-11-19T08:01:21;26.48;;;14.38;;
58238;SDS011;44037;55.638;37.356;2023-11-19T08:03:49;20.10;;;13.55;;
58238;SDS011;44037;55.638;37.356;2023-11-19T08:06:17;23.50;;;14.07;;
58238;SDS011;44037;55.638;37.356;2023-11-19T08:08:45;21.98;;;13.40;;
58238;SDS011;44037;55.638;37.356;2023-11-19T08:11:13;27.55;;;14.05;;
58238;SDS011;44037;55.638;37.356;2023-11-19T08:13:43;23.77;;;13.43;;
58238;SDS011;44037;55.638;37.356;2023-11-19T08:16:11;21.67;;;13.73;;
58238;SDS011;44037;55.638;37.356;2023-11-19T08:18:40;21.83;;;14.57;;
58238;SDS011;44037;55.638;37.356;2023-11-19T08:21:09;24.92;;;13.85;;
58238;SDS011;44037;55.638;37.356;2023-11-19T08:23:37;19.40;;;13.38;;
58238;SDS011;44037;55.638;37.356;2023-11-19T08:26:05;21.20;;;13.90;;
58238;SDS011;44037;55.638;37.356;2023-11-19T08:28:33;25.02;;;13.52;;
58238;SDS011;44037;55.638;37.356;2023-11-19T08:31:02;23.23;;;13.27;;
58238;SDS011;44037;55.638;37.356;2023-11-19T08:33:32;19.25;;;12.10;;
58238;SDS011;44037;55.638;37.356;2023-11-19T08:35:59;26.17;;;17.30;;
58238;SDS011;44037;55.638;37.356;2023-11-19T08:38:29;21.35;;;13.43;;
58238;SDS011;44037;55.638;37.356;2023-11-19T08:40:57;25.25;;;14.40;;
58238;SDS011;44037;55.638;37.356;2023-11-19T08:43:26;19.02;;;13.00;;
58238;SDS011;44037;55.638;37.356;2023-11-19T08:45:54;24.70;;;13.10;;
58238;SDS011;44037;55.638;37.356;2023-11-19T08:48:23;21.40;;;12.18;;
58238;SDS011;44037;55.638;37.356;2023-11-19T08:50:51;19.45;;;13.60;;
58238;SDS011;44037;55.638;37.356;2023-11-19T08:53:19;23.35;;;13.98;;
58238;SDS011;44037;55.638;37.356;2023-11-19T08:55:47;31.75;;;17.48;;
58238;SDS011;44037;55.638;37.356;2023-11-19T08:58:16;23.73;;;16.05;;
58238;SDS011;44037;55.638;37.356;2023-11-19T09:00:44;28.05;;;13.32;;
58238;SDS011;44037;55.638;37.356;2023-11-19T09:03:11;20.95;;;13.00;;
58238;SDS011;44037;55.638;37.356;2023-11-19T09:05:41;21.85;;;13.13;;
58238;SDS011;44037;55.638;37.356;2023-11-19T09:08:08;20.20;;;13.43;;
58238;SDS011;44037;55.638;37.356;2023-11-19T09:10:37;20.15;;;13.55;;
58238;SDS011;44037;55.638;37.356;2023-11-19T09:13:05;25.70;;;14.38;;
58238;SDS011;44037;55.638;37.356;2023-11-19T09:15:33;25.17;;;14.95;;
58238;SDS011;44037;55.638;37.356;2023-11-19T09:18:01;25.73;;;18.13;;
58238;SDS011;44037;55.638;37.356;2023-11-19T09:20:30;25.23;;;14.30;;
58238;SDS011;44037;55.638;37.356;2023-11-19T09:23:05;26.60;;;14.25;;
58238;SDS011;44037;55.638;37.356;2023-11-19T09:25:34;23.00;;;14.77;;
58238;SDS011;44037;55.638;37.356;2023-11-19T09:28:02;23.02;;;14.05;;
58238;SDS011;44037;55.638;37.356;2023-11-19T09:30:30;20.80;;;12.90;;
58238;SDS011;44037;55.638;37.356;2023-11-19T09:32:59;21.73;;;13.18;;
58238;SDS011;44037;55.638;37.356;2023-11-19T09:35:27;32.70;;;19.40;;
58238;SDS011;44037;55.638;37.356;2023-11-19T09:37:55;26.25;;;15.93;;
58238;SDS011;44037;55.638;37.356;2023-11-19T09:40:24;32.67;;;17.75;;
58238;SDS011;44037;55.638;37.356;2023-11-19T09:42:54;33.40;;;19.25;;
58238;SDS011;44037;55.638;37.356;2023-11-19T09:45:21;23.17;;;15.27;;
58238;SDS011;44037;55.638;37.356;2023-11-19T09:47:54;27.77;;;15.75;;
58238;SDS011;44037;55.638;37.356;2023-11-19T09:50:24;25.90;;;14.15;;
58238;SDS011;44037;55.638;37.356;2023-11-19T09:52:52;19.80;;;12.80;;
58238;SDS011;44037;55.638;37.356;2023-11-19T09:55:20;25.60;;;14.20;;
58238;SDS011;44037;55.638;37.356;2023-11-19T09:57:49;25.15;;;12.70;;
58238;SDS011;44037;55.638;37.356;2023-11-19T10:00:19;24.60;;;13.25;;
58238;SDS011;44037;55.638;37.356;2023-11-19T10:02:48;27.52;;;15.93;;
58238;SDS011;44037;55.638;37.356;2023-11-19T10:05:17;32.72;;;16.20;;
58238;SDS011;44037;55.638;37.356;2023-11-19T10:07:47;21.08;;;14.05;;
58238;SDS011;44037;55.638;37.356;2023-11-19T10:10:15;19.15;;;13.93;;
58238;SDS011;44037;55.638;37.356;2023-11-19T10:12:45;23.42;;;13.63;;
58238;SDS011;44037;55.638;37.356;2023-11-19T10:15:17;22.95;;;13.90;;
58238;SDS011;44037;55.638;37.356;2023-11-19T10:17:48;24.40;;;13.50;;
58238;SDS011;44037;55.638;37.356;2023-11-19T10:20:15;22.65;;;13.90;;
58238;SDS011;44037;55.638;37.356;2023-11-19T10:22:43;23.48;;;13.13;;
58238;SDS011;44037;55.638;37.356;2023-11-19T10:25:24;19.10;;;13.30;;
58238;SDS011;44037;55.638;37.356;2023-11-19T10:27:53;22.02;;;13.38;;
58238;SDS011;44037;55.638;37.356;2023-11-19T10:30:23;29.80;;;18.05;;
58238;SDS011;44037;55.638;37.356;2023-11-19T10:33:04;19.05;;;13.05;;
58238;SDS011;44037;55.638;37.356;2023-11-19T10:35:33;19.10;;;12.30;;
58238;SDS011;44037;55.638;37.356;2023-11-19T10:38:02;20.98;;;11.75;;
58238;SDS011;44037;55.638;37.356;2023-11-19T10:40:41;16.35;;;10.60;;
58238;SDS011;44037;55.638;37.356;2023-11-19T10:43:09;23.55;;;12.57;;
58238;SDS011;44037;55.638;37.356;2023-11-19T10:45:38;18.35;;;11.68;;
58238;SDS011;44037;55.638;37.356;2023-11-19T10:48:07;18.33;;;11.40;;
58238;SDS011;44037;55.638;37.356;2023-11-19T10:50:34;16.63;;;10.85;;
58238;SDS011;44037;55.638;37.356;2023-11-19T10:53:03;15.57;;;10.43;;
58238;SDS011;44037;55.638;37.356;2023-11-19T10:55:32;19.42;;;12.98;;
58238;SDS011;44037;55.638;37.356;2023-11-19T10:58:02;19.55;;;10.95;;
58238;SDS011;44037;55.638;37.356;2023-11-19T11:00:33;15.02;;;10.55;;
58238;SDS011;44037;55.638;37.356;2023-11-19T11:03:08;14.60;;;10.35;;
58238;SDS011;44037;55.638;37.356;2023-11-19T11:05:38;21.52;;;11.35;;
58238;SDS011;44037;55.638;37.356;2023-11-19T11:08:07;19.42;;;11.15;;
58238;SDS011;44037;55.638;37.356;2023-11-19T11:10:38;16.20;;;10.30;;
58238;SDS011;44037;55.638;37.356;2023-11-19T11:13:10;13.75;;;9.38;;
58238;SDS011;44037;55.638;37.356;2023-11-19T11:15:40;21.10;;;11.70;;
58238;SDS011;44037;55.638;37.356;2023-11-19T11:18:10;14.82;;;10.07;;
58238;SDS011;44037;55.638;37.356;2023-11-19T11:20:37;18.73;;;11.07;;
58238;SDS011;44037;55.638;37.356;2023-11-19T11:23:21;17.58;;;9.93;;
58238;SDS011;44037;55.638;37.356;2023-11-19T11:26:09;15.45;;;9.35;;
58238;SDS011;44037;55.638;37.356;2023-11-19T11:28:53;15.80;;;9.45;;
58238;SDS011;44037;55.638;37.356;2023-11-19T11:31:29;15.40;;;9.25;;
58238;SDS011;44037;55.638;37.356;2023-11-19T11:34:08;17.92;;;9.73;;
58238;SDS011;44037;55.638;37.356;2023-11-19T11:36:53;18.15;;;10.27;;
58238;SDS011;44037;55.638;37.356;2023-11-19T11:39:33;14.88;;;9.70;;
58238;SDS011;44037;55.638;37.356;2023-11-19T11:45:01;15.75;;;9.77;;
58238;SDS011;44037;55.638;37.356;2023-11-19T11:50:46;21.02;;;10.77;;
58238;SDS011;44037;55.638;37.356;2023-11-19T11:53:16;21.63;;;10.70;;
58238;SDS011;44037;55.638;37.356;2023-11-19T11:55:54;15.25;;;9.98;;
58238;SDS011;44037;55.638;37.356;2023-11-19T11:58:25;12.07;;;8.80;;
58238;SDS011;44037;55.638;37.356;2023-11-19T12:00:57;13.88;;;9.32;;
58238;SDS011;44037;55.638;37.356;2023-11-19T12:03:27;15.60;;;9.63;;
58238;SDS011;44037;55.638;37.356;2023-11-19T12:05:57;16.48;;;9.63;;
58238;SDS011;44037;55.638;37.356;2023-11-19T12:08:26;14.48;;;8.45;;
58238;SDS011;44037;55.638;37.356;2023-11-19T12:10:57;12.40;;;8.68;;
58238;SDS011;44037;55.638;37.356;2023-11-19T12:13:29;14.95;;;9.23;;
58238;SDS011;44037;55.638;37.356;2023-11-19T12:16:13;11.15;;;6.93;;
58238;SDS011;44037;55.638;37.356;2023-11-19T12:18:41;13.95;;;8.80;;
58238;SDS011;44037;55.638;37.356;2023-11-19T12:21:11;14.82;;;8.13;;
58238;SDS011;44037;55.638;37.356;2023-11-19T12:23:45;14.52;;;8.65;;
58238;SDS011;44037;55.638;37.356;2023-11-19T12:29:07;14.50;;;8.10;;
58238;SDS011;44037;55.638;37.356;2023-11-19T12:31:35;18.38;;;8.70;;
58238;SDS011;44037;55.638;37.356;2023-11-19T12:34:06;16.98;;;8.70;;
58238;SDS011;44037;55.638;37.356;2023-11-19T12:36:41;12.70;;;8.27;;
58238;SDS011;44037;55.638;37.356;2023-11-19T12:39:09;19.58;;;8.40;;
58238;SDS011;44037;55.638;37.356;2023-11-19T12:41:52;11.35;;;8.05;;
58238;SDS011;44037;55.638;37.356;2023-11-19T12:44:20;14.85;;;8.38;;
58238;SDS011;44037;55.638;37.356;2023-11-19T12:47:01;16.88;;;10.20;;
58238;SDS011;44037;55.638;37.356;2023-11-19T12:49:30;15.40;;;9.95;;
58238;SDS011;44037;55.638;37.356;2023-11-19T12:51:59;18.05;;;11.07;;
58238;SDS011;44037;55.638;37.356;2023-11-19T12:54:34;17.92;;;11.35;;
58238;SDS011;44037;55.638;37.356;2023-11-19T12:57:03;16.20;;;10.48;;
58238;SDS011;44037;55.638;37.356;2023-11-19T12:59:31;19.92;;;12.40;;
58238;SDS011;44037;55.638;37.356;2023-11-19T13:01:59;18.15;;;11.55;;
58238;SDS011;44037;55.638;37.356;2023-11-19T13:04:28;20.02;;;11.68;;
58238;SDS011;44037;55.638;37.356;2023-11-19T13:06:57;17.40;;;11.20;;
58238;SDS011;44037;55.638;37.356;2023-11-19T13:09:29;18.33;;;12.65;;
58238;SDS011;44037;55.638;37.356;2023-11-19T13:11:57;19.80;;;11.45;;
58238;SDS011;44037;55.638;37.356;2023-11-19T13:14:35;19.38;;;12.18;;
58238;SDS011;44037;55.638;37.356;2023-11-19T13:17:04;22.60;;;13.35;;
58238;SDS011;44037;55.638;37.356;2023-11-19T13:19:32;19.50;;;11.80;;
58238;SDS011;44037;55.638;37.356;2023-11-19T13:22:02;19.42;;;12.35;;
58238;SDS011;44037;55.638;37.356;2023-11-19T13:24:30;19.38;;;11.85;;
58238;SDS011;44037;55.638;37.356;2023-11-19T13:26:57;18.73;;;11.40;;
58238;SDS011;44037;55.638;37.356;2023-11-19T13:29:25;21.67;;;13.20;;
58238;SDS011;44037;55.638;37.356;2023-11-19T13:31:53;23.27;;;12.52;;
58238;SDS011;44037;55.638;37.356;2023-11-19T13:34:21;18.75;;;13.30;;
58238;SDS011;44037;55.638;37.356;2023-11-19T13:36:48;20.27;;;11.95;;
58238;SDS011;44037;55.638;37.356;2023-11-19T13:39:18;19.23;;;13.65;;
58238;SDS011;44037;55.638;37.356;2023-11-19T13:41:48;23.25;;;13.85;;
58238;SDS011;44037;55.638;37.356;2023-11-19T13:44:17;29.30;;;18.38;;
58238;SDS011;44037;55.638;37.356;2023-11-19T13:46:44;48.25;;;27.70;;
58238;SDS011;44037;55.638;37.356;2023-11-19T13:49:13;25.00;;;16.08;;
58238;SDS011;44037;55.638;37.356;2023-11-19T13:51:41;22.60;;;14.13;;
58238;SDS011;44037;55.638;37.356;2023-11-19T13:54:09;20.40;;;14.05;;
58238;SDS011;44037;55.638;37.356;2023-11-19T13:56:41;22.27;;;13.18;;
58238;SDS011;44037;55.638;37.356;2023-11-19T13:59:10;21.10;;;14.45;;
58238;SDS011;44037;55.638;37.356;2023-11-19T14:01:38;24.05;;;14.80;;
58238;SDS011;44037;55.638;37.356;2023-11-19T14:04:06;21.98;;;14.18;;
58238;SDS011;44037;55.638;37.356;2023-11-19T14:06:34;22.20;;;14.48;;
58238;SDS011;44037;55.638;37.356;2023-11-19T14:09:02;19.70;;;13.52;;
58238;SDS011;44037;55.638;37.356;2023-11-19T14:11:32;24.35;;;14.32;;
58238;SDS011;44037;55.638;37.356;2023-11-19T14:14:01;22.63;;;15.27;;
58238;SDS011;44037;55.638;37.356;2023-11-19T14:16:29;23.30;;;14.30;;
58238;SDS011;44037;55.638;37.356;2023-11-19T14:18:58;22.25;;;15.43;;
58238;SDS011;44037;55.638;37.356;2023-11-19T14:21:26;23.17;;;15.13;;
58238;SDS011;44037;55.638;37.356;2023-11-19T14:23:53;23.45;;;16.70;;
58238;SDS011;44037;55.638;37.356;2023-11-19T14:26:21;25.05;;;17.05;;
58238;SDS011;44037;55.638;37.356;2023-11-19T14:28:49;24.48;;;16.77;;
58238;SDS011;44037;55.638;37.356;2023-11-19T14:31:18;29.63;;;17.77;;